Flight Track Log - Related Links

Times and Time Zones

All times are in EDT time to prevent confusion due to time zone crossing. See the N116SV flight status page for this flight to view local times or setup timezone preferences in your user account.

Time Position Orientation Groundspeed Altitude Reporting Facility
EDT Latitude Longitude Course Direction KTS MPH feet Rate Location/Type
Sun 11:51:13 AM 39.2167 -76.3833 159° South 141 162 2,600  Level Potomac TRACON
Sun 11:52:14 AM 39.1833 -76.3667 159° South 149 171 3,000 248 Climbing Potomac TRACON
Sun 11:53:14 AM 39.1500 -76.3333 142° Southeast 134 154 3,100 100 Climbing Potomac TRACON
Sun 11:54:14 AM 39.1000 -76.3167 165° South 135 155 3,200  Climbing Potomac TRACON
Sun 11:55:14 AM 39.0667 -76.3167 180° South 139 160 3,100 -100 Descending Potomac TRACON
Sun 11:56:14 AM 39.0333 -76.3000 159° South 139 160 3,000  Descending Potomac TRACON
Sun 11:57:20 AM 38.9833 -76.2833 165° South 131 151 3,100 48 Climbing Potomac TRACON
Sun 11:58:20 AM 38.9500 -76.2833 180° South 133 153 3,100  Level Potomac TRACON
Sun 11:59:21 AM 38.9167 -76.2667 159° South 134 154 3,100  Level Potomac TRACON
Sun 12:00:15 PM 38.8833 -76.2500 159° South 133 153 3,100  Level Potomac TRACON
Sun 12:01:15 PM 38.8667 -76.2167 123° Southeast 130 150 3,100 -50 Level Potomac TRACON
Sun 12:02:15 PM 38.8500 -76.2000 142° Southeast 115 132 3,000 -50 Descending Potomac TRACON
Sun 12:03:15 PM 38.8500 -76.1667 90° East 83 96 3,000 50 Level Potomac TRACON
Sun 12:04:15 PM 38.8667 -76.1500 38° Northeast 80 92 3,100 100 Climbing Potomac TRACON
Sun 12:05:15 PM 38.8833 -76.1333 38° Northeast 74 85 3,200  Climbing Potomac TRACON
Sun 12:06:15 PM 38.9000 -76.1167 38° Northeast 71 82 3,100 -50 Descending Potomac TRACON
Sun 12:07:15 PM 38.9167 -76.1000 38° Northeast 80 92 3,100  Level Potomac TRACON
Sun 12:08:15 PM 38.9167 -76.0833 90° East 70 81 3,100 -150 Level Potomac TRACON
Sun 12:09:15 PM 38.9333 -76.0500 57° Northeast 77 89 2,800 -400 Descending Potomac TRACON
Sun 12:10:15 PM 38.9500 -76.0333 38° Northeast 94 108 2,300 -350 Descending Potomac TRACON
Sun 12:11:15 PM 38.9833 -76.0167 21° North 93 107 2,100 -150 Descending Potomac TRACON
Sun 12:12:15 PM 39.0000 -75.9833 57° Northeast 80 92 2,000  Descending Potomac TRACON
Sun 12:13:15 PM 39.0000 -75.9667 90° East 105 121 2,100 50 Climbing Potomac TRACON
Sun 12:14:15 PM 38.9667 -75.9500 159° South 128 147 2,100 -200 Level Potomac TRACON
Sun 12:15:15 PM 38.9333 -75.9667 201° Southwest 121 139 1,700 -198 Descending Potomac TRACON
Sun 12:16:16 PM 38.9000 -75.9833 201° Southwest 111 128 1,700 -50 Level Potomac TRACON
Sun 12:17:16 PM 38.8833 -76.0167 237° Southwest 110 127 1,600 -100 Descending Potomac TRACON
Sun 12:18:16 PM 38.8500 -76.0333 201° Southwest 111 128 1,500 -400 Descending Potomac TRACON
Sun 12:19:16 PM 38.8333 -76.0500 218° Southwest 106 122 800 -350 Descending Potomac TRACON
Sun 12:20:16 PM 38.8000 -76.0333 159° South 114 131 800 50 Level Potomac TRACON
Sun 12:21:16 PM 38.7833 -76.0667 237° Southwest 116 133 900 133 Climbing Potomac TRACON
Sun 12:23:16 PM 38.8167 -76.0833 349° North 69 79 1,200 367 Climbing Potomac TRACON
Sun 12:24:16 PM 38.8333 -76.0833 360° North 70 81 2,000 800 Climbing Potomac TRACON
Sun 12:25:16 PM 38.8500 -76.1000 322° Northwest 54 62 2,800 550 Climbing Potomac TRACON
Sun 12:26:16 PM 38.8500 -76.1167 270° West 72 83 3,100 100 Climbing Potomac TRACON
Sun 12:27:16 PM 38.8667 -76.1333 322° Northwest 80 92 3,000 -33 Descending Potomac TRACON
Sun 12:29:16 PM 38.8833 -76.1833 293° West 78 90 3,000  Level Potomac TRACON
Sun 12:30:16 PM 38.9000 -76.2167 303° West 77 89 3,000  Level Potomac TRACON
Sun 12:31:16 PM 38.9000 -76.2333 270° West 75 86 3,000  Level Potomac TRACON
Sun 12:32:16 PM 38.9167 -76.2667 303° West 76 87 3,000  Level Potomac TRACON
Sun 12:33:16 PM 38.9333 -76.2833 322° Northwest 73 84 3,000  Level Potomac TRACON
Sun 12:34:16 PM 38.9333 -76.3000 270° West 70 81 3,000  Level Potomac TRACON
Sun 12:35:16 PM 38.9500 -76.3167 322° Northwest 71 82 3,000  Level Potomac TRACON
Sun 12:36:17 PM 38.9667 -76.3000 38° Northeast 65 75 3,000  Level Potomac TRACON
Sun 12:37:17 PM 38.9833 -76.2833 38° Northeast 64 74 3,000  Level Potomac TRACON
Sun 12:38:17 PM 39.0000 -76.2667 38° Northeast 67 77 3,000 -50 Level Potomac TRACON
Sun 12:39:18 PM 39.0167 -76.2667 360° North 64 74 2,900 -298 Descending Potomac TRACON
Sun 12:40:18 PM 39.0333 -76.2500 38° Northeast 79 91 2,400 -450 Descending Potomac TRACON
Sun 12:41:18 PM 39.0500 -76.2333 38° Northeast 88 101 2,000 -200 Descending Potomac TRACON
Sun 12:42:18 PM 39.0667 -76.2333 360° North 74 85 2,000  Level Potomac TRACON
Sun 12:43:25 PM 39.1000 -76.2333 360° North 78 90 2,000  Level Potomac TRACON
Sun 12:44:25 PM 39.1167 -76.2333 360° North 74 85 2,000  Level Potomac TRACON
Sun 12:45:25 PM 39.1333 -76.2333 360° North 73 84 2,000  Level Potomac TRACON
Sun 12:46:25 PM 39.1500 -76.2333 360° North 77 89 2,000  Level Potomac TRACON
Sun 12:47:26 PM 39.1833 -76.2167 21° North 68 78 2,000  Level Potomac TRACON
Sun 12:48:26 PM 39.1833 -76.2500 270° West 93 107 2,000  Level Potomac TRACON
Sun 12:49:32 PM 39.1500 -76.2333 159° South 133 153 2,000  Level Potomac TRACON
Sun 12:50:33 PM 39.1500 -76.2000 90° East 111 128 2,000 50 Level Potomac TRACON
Sun 12:51:33 PM 39.1667 -76.2000 360° North 75 86 2,100  Climbing Potomac TRACON
Sun 12:52:33 PM 39.1667 -76.2167 270° West 59 68 2,000 -48 Descending Potomac TRACON
Sun 12:53:39 PM 39.1833 -76.2333 322° Northwest 55 63 2,000  Level Potomac TRACON
Sun 12:54:45 PM 39.1833 -76.2500 270° West 47 54 2,000 48 Level Potomac TRACON
Sun 12:55:45 PM 39.2000 -76.2667 322° Northwest 58 67 2,100 48 Climbing Potomac TRACON
Sun 12:56:51 PM 39.2167 -76.2833 322° Northwest 61 70 2,100  Level Potomac TRACON
Sun 12:57:57 PM 39.2333 -76.3000 322° Northwest 62 71 2,100  Level Potomac TRACON
Sun 12:58:58 PM 39.2333 -76.3167 270° West 61 70 2,100 -50 Level Potomac TRACON
Sun 12:59:58 PM 39.2500 -76.3167 360° North 67 77 2,000 -200 Descending Potomac TRACON
Sun 01:00:58 PM 39.2667 -76.3500 303° West 81 93 1,700 -350 Descending Potomac TRACON
Sun 01:01:58 PM 39.2833 -76.3500 360° North 66 76 1,300 -454 Descending Potomac TRACON
Sun 01:02:57 PM 39.3000 -76.3667 322° Northwest 69 79 800 -400 Descending Potomac TRACON
Sun 01:03:58 PM 39.3000 -76.3833 270° West 67 77 500 -295 Descending Potomac TRACON

Login

Don't have an account? Register now (free) for customized features, flight alerts, and more!